METAR AND TAF INFORMATION
METAR FOR LGSA
ADDS - METARS form results

(2204 UTC 24 May 2019)
Data provider http://aviationweather.gov/metar/data/
 
METAR text: LGSA 242150Z 27018KT 9999 FEW025 17/11 Q1013
Conditions at: LGSA (SOUDA/KHANIA (AF, GR) observed 2150 UTC 24 May 2019
Temperature: 17.0°C (63°F)
Dewpoint: 11.0°C (52°F) [RH = 68%]
Pressure (altimeter): 29.91 inches Hg (1013.0 mb)
Winds: from the W (270 degrees) at 21 MPH (18 knots; 9.3 m/s)
Visibility: 6 or more miles (10+ km)
Ceiling: at least 12,000 feet AGL
Clouds: few clouds at 2500 feet AGL
Weather: no significant weather observed at this time

METAR text: LGSA 242120Z 28016KT 9999 FEW025 17/11 Q1013
Conditions at: LGSA (SOUDA/KHANIA (AF, GR) observed 2120 UTC 24 May 2019
Temperature: 17.0°C (63°F)
Dewpoint: 11.0°C (52°F) [RH = 68%]
Pressure (altimeter): 29.91 inches Hg (1013.0 mb)
Winds: from the W (280 degrees) at 18 MPH (16 knots; 8.2 m/s)
Visibility: 6 or more miles (10+ km)
Ceiling: at least 12,000 feet AGL
Clouds: few clouds at 2500 feet AGL
Weather: no significant weather observed at this time

Forecast for: LGSA (SOUDA/KHANIA (AF, GR)
Text: TAF LGSA 241700Z 2418/2518 27014G24KT 9999 FEW020
Forecast period: 1800 to 2100 UTC 24 May 2019
Forecast type: FROM: standard forecast or significant change
Winds: from the W (270 degrees) at 16 MPH (14 knots; 7.2 m/s)
gusting to 28 MPH (24 knots; 12.3 m/s)
Visibility: 6 or more miles 10+ km)
Ceiling: at least 12,000 feet AGL
Clouds: few clouds at 2000 feet AGL
Weather: no significant weather forecast for this period
Text: BECMG 2421/2423 27014KT
Forecast period: 2100 UTC 24 May 2019 to 1800 UTC 25 May 2019
Forecast type: BECOMING: Conditions expected to become as follows by 2300 UTC 24 May 2019
Winds: from the W (270 degrees) at 16 MPH (14 knots; 7.2 m/s)
Visibility: 6 or more miles 10+ km)
Ceiling: at least 12,000 feet AGL
Clouds: few clouds at 2000 feet AGL
Weather: no significant weather forecast for this period

 AIRPORT MAP

 RUNWAY INFORMATION
Runway 11 Runway length 10982 ft Runway width 148 ft
Runway elevation 428 ft Runway displaced threshold 0 ft Runway heading 111
Runway 29 Runway length 10982 ft Runway width 148 ft
Runway elevation 490 ft Runway displaced threshold 0 ft Runway heading 291

 AIRPORT FREQUENCIES
Type A/G Name CHANIA RDO Frequency 563.7 MHZ
Type APP Name APP Frequency 118.125 MHZ
Type GND Name GND Frequency 121.7 MHZ
Type MISC Name RANGER BAS Frequency 25.24 MHZ
Type OPS Name BASE OPS Frequency 35.94 MHZ
Type PMSV Name PMSV METRO Frequency 35.94 MHZ
Type POST Name BULL PEN Frequency 27.895 MHZ
Type TWR Name TWR Frequency 121.1 MHZ

 AIRPORT NEAR NAVIGATION AIDS
Type TACAN Name Souda Frequency 111200 KHZ
Type VOR-DME Name Chania Frequency 108600 KHZ
Type NDB Name Chania Frequency 409 KHZ



Air Greece virtual AIrline - All rights reserved 2018 - Powered by Virtual Airlines Manager [v2.6.2]